Time;durP1;ratioP1;P1;durP2;ratioP2;P2;SDS_P1;SDS_P2;PMS_P1;PMS_P2;Temp;Humidity;BMP_temperature;BMP_pressure;BME280_temperature;BME280_humidity;BME280_pressure;Samples;Min_cycle;Max_cycle;Signal;HPM_P1;HPM_P2
2023/02/14 00:02:36;;;;;;;;;;;;;;;3.50;80.12;102860.27;104965;1288;61247;-78
2023/02/14 00:05:22;;;;;;;;;;;;;;;3.54;80.17;102865.63;104991;1290;61207;-78
2023/02/14 00:08:09;;;;;;;;;;;;;;;3.59;80.18;102858.69;105234;1290;74061;-78
2023/02/14 00:10:55;;;;;;;;;;;;;;;3.62;80.21;102860.04;105085;1287;67218;-78
2023/02/14 00:15:20;;;;;;;;;;;;;;;3.66;80.20;102855.23;105061;1289;71206;-79
2023/02/14 00:16:47;;;;;;;;;;;;;;;3.69;80.15;102855.54;105144;1290;63383;-78
2023/02/14 00:19:34;;;;;;;;;;;;;;;3.69;80.13;102858.80;105181;1288;61167;-78
2023/02/14 00:22:21;;;;;;;;;;;;;;;3.69;80.09;102857.41;105121;1292;74137;-78
2023/02/14 00:25:07;;;;;;;;;;;;;;;3.66;80.06;102853.20;105138;1288;67234;-78
2023/02/14 00:27:54;;;;;;;;;;;;;;;3.61;80.00;102849.73;105001;1290;74011;-78
2023/02/14 00:30:40;;;;;;;;;;;;;;;3.58;80.05;102849.59;106332;1288;59058;-78
2023/02/14 00:33:26;;;;;;;;;;;;;;;3.54;80.12;102848.24;105809;1288;161368;-78
2023/02/14 00:36:12;;;;;;;;;;;;;;;3.53;80.06;102846.79;106070;1292;73148;-78
2023/02/14 00:39:00;;;;;;;;;;;;;;;3.51;80.12;102857.80;105098;1288;68374;-78
2023/02/14 00:41:46;;;;;;;;;;;;;;;3.49;80.09;102854.45;104967;1288;72565;-78
2023/02/14 00:44:33;;;;;;;;;;;;;;;3.46;80.11;102856.85;105034;1288;59698;-78
2023/02/14 00:47:19;;;;;;;;;;;;;;;3.43;80.11;102856.88;105170;1291;62851;-78
2023/02/14 00:50:05;;;;;;;;;;;;;;;3.40;80.08;102856.37;105145;1288;73319;-78
2023/02/14 00:52:51;;;;;;;;;;;;;;;3.35;80.07;102856.48;105179;1288;69899;-78
2023/02/14 00:55:37;;;;;;;;;;;;;;;3.29;80.07;102862.16;105100;1289;73041;-78
2023/02/14 00:58:23;;;;;;;;;;;;;;;3.26;80.12;102863.19;104947;1293;61257;-78
2023/02/14 01:01:10;;;;;;;;;;;;;;;3.24;80.16;102862.06;105044;1292;61108;-79
2023/02/14 01:03:57;;;;;;;;;;;;;;;3.21;80.07;102862.76;105115;1289;73085;-78
2023/02/14 01:06:44;;;;;;;;;;;;;;;3.18;80.15;102862.77;106175;1290;67357;-78
2023/02/14 01:09:30;;;;;;;;;;;;;;;3.13;80.11;102861.01;106108;1289;72827;-78
2023/02/14 01:12:16;;;;;;;;;;;;;;;3.11;80.15;102864.14;105157;1292;61094;-78
2023/02/14 01:15:02;;;;;;;;;;;;;;;3.08;80.17;102863.02;104992;1294;61139;-78
2023/02/14 01:17:48;;;;;;;;;;;;;;;3.06;80.19;102861.34;105174;1289;73706;-78
2023/02/14 01:20:34;;;;;;;;;;;;;;;3.02;80.17;102860.65;105052;1293;67903;-78
2023/02/14 01:23:21;;;;;;;;;;;;;;;3.00;80.19;102860.87;105162;1289;71265;-78
2023/02/14 01:26:07;;;;;;;;;;;;;;;2.98;80.21;102856.37;105042;1294;61230;-78
2023/02/14 01:28:53;;;;;;;;;;;;;;;2.97;80.14;102855.94;104910;1290;61146;-78
2023/02/14 01:31:40;;;;;;;;;;;;;;;2.94;80.17;102846.25;105026;1289;73363;-78
2023/02/14 01:34:26;;;;;;;;;;;;;;;2.90;80.18;102839.55;105140;1290;67997;-78
2023/02/14 01:37:13;;;;;;;;;;;;;;;2.85;80.17;102837.63;104989;1289;75431;-78
2023/02/14 01:39:59;;;;;;;;;;;;;;;2.82;80.23;102842.05;105063;1292;60456;-79
2023/02/14 01:42:45;;;;;;;;;;;;;;;2.78;80.26;102842.55;105217;1290;59537;-79
2023/02/14 01:45:32;;;;;;;;;;;;;;;2.77;80.28;102844.33;105120;1292;76828;-79
2023/02/14 01:48:20;;;;;;;;;;;;;;;2.74;80.30;102842.67;105118;1292;71842;-78
2023/02/14 01:51:06;;;;;;;;;;;;;;;2.72;80.27;102847.02;105086;1290;72235;-78
2023/02/14 01:53:53;;;;;;;;;;;;;;;2.71;80.32;102846.25;105064;1293;61514;-78
2023/02/14 01:56:44;;;;;;;;;;;;;;;2.71;80.38;102847.08;105117;1290;59891;-78
2023/02/14 01:59:33;;;;;;;;;;;;;;;2.70;80.31;102850.09;105028;1290;73352;-78
2023/02/14 02:02:22;;;;;;;;;;;;;;;2.68;80.34;102849.16;104995;1289;67330;-78
2023/02/14 02:05:08;;;;;;;;;;;;;;;2.69;80.35;102843.90;104981;1289;71733;-78
2023/02/14 02:07:57;;;;;;;;;;;;;;;2.65;80.21;102838.65;105099;1287;61103;-78
2023/02/14 02:10:43;;;;;;;;;;;;;;;2.61;80.21;102832.48;105012;1288;61139;-78
2023/02/14 02:13:32;;;;;;;;;;;;;;;2.57;80.24;102828.87;105087;1288;76007;-78
2023/02/14 02:16:31;;;;;;;;;;;;;;;2.55;80.38;102830.48;105028;1294;67315;-78
2023/02/14 02:19:31;;;;;;;;;;;;;;;2.53;80.33;102827.98;105089;1292;70207;-78
2023/02/14 02:22:29;;;;;;;;;;;;;;;2.52;80.38;102834.75;105096;1288;60003;-78
2023/02/14 02:25:24;;;;;;;;;;;;;;;2.50;80.32;102835.80;105100;1288;61219;-78
2023/02/14 02:28:22;;;;;;;;;;;;;;;2.48;80.38;102832.29;105057;1288;73215;-78
2023/02/14 02:31:24;;;;;;;;;;;;;;;2.47;80.40;102835.33;105197;1289;68981;-78
2023/02/14 02:34:29;;;;;;;;;;;;;;;2.47;80.36;102841.96;105109;1288;72369;-78
2023/02/14 02:37:53;;;;;;;;;;;;;;;2.46;80.41;102838.85;105094;1288;61387;-78
2023/02/14 02:40:48;;;;;;;;;;;;;;;2.45;80.37;102832.64;104381;1305;59655;-78
2023/02/14 02:43:43;;;;;;;;;;;;;;;2.42;80.41;102830.80;104452;1300;75918;-78
2023/02/14 02:46:58;;;;;;;;;;;;;;;2.39;80.39;102826.89;104398;1297;70178;-78
2023/02/14 02:53:28;;;;;;;;;;;;;;;2.34;80.40;102815.75;103723;1304;291495;-79
2023/02/14 02:56:44;;;;;;;;;;;;;;;2.32;80.45;102817.86;103911;1304;61578;-78
2023/02/14 02:59:41;;;;;;;;;;;;;;;2.28;80.47;102824.13;103916;1304;74513;-78
2023/02/14 03:02:31;;;;;;;;;;;;;;;2.29;80.50;102823.45;103903;1305;67425;-78
2023/02/14 03:05:17;;;;;;;;;;;;;;;2.27;80.44;102825.92;103838;1302;71354;-78
2023/02/14 03:08:04;;;;;;;;;;;;;;;2.26;80.47;102827.20;103872;1308;61204;-78
2023/02/14 03:10:51;;;;;;;;;;;;;;;2.25;80.49;102829.36;104257;1296;59500;-78
2023/02/14 03:13:58;;;;;;;;;;;;;;;2.24;80.49;102833.77;104326;1296;77686;-78
2023/02/14 03:17:04;;;;;;;;;;;;;;;2.24;80.57;102839.89;103834;1304;67266;-78
2023/02/14 03:20:14;;;;;;;;;;;;;;;2.26;80.58;102838.29;103595;1308;71520;-78
2023/02/14 03:23:00;;;;;;;;;;;;;;;2.27;80.55;102839.20;103242;1313;59931;-78
2023/02/14 03:25:56;;;;;;;;;;;;;;;2.28;80.58;102839.95;103168;1312;61221;-78
2023/02/14 03:28:50;;;;;;;;;;;;;;;2.31;80.60;102841.61;103240;1312;73271;-78
2023/02/14 03:32:02;;;;;;;;;;;;;;;2.33;80.69;102845.13;103800;1304;67229;-78
2023/02/14 03:35:14;;;;;;;;;;;;;;;2.37;80.80;102849.94;103601;1305;71219;-78
2023/02/14 03:38:10;;;;;;;;;;;;;;;2.43;80.78;102848.19;103206;1310;61465;-78
2023/02/14 03:40:59;;;;;;;;;;;;;;;2.48;80.87;102851.90;103354;1314;61199;-78
2023/02/14 03:43:48;;;;;;;;;;;;;;;2.54;80.80;102849.99;103388;1309;74552;-78
2023/02/14 03:46:54;;;;;;;;;;;;;;;2.59;80.81;102849.27;103325;1314;73178;-78
2023/02/14 03:49:47;;;;;;;;;;;;;;;2.64;80.77;102845.58;103313;1308;72110;-78
2023/02/14 03:52:35;;;;;;;;;;;;;;;2.69;80.86;102844.61;103428;1309;61970;-78
2023/02/14 03:55:32;;;;;;;;;;;;;;;2.74;80.86;102842.14;103865;1305;61362;-78
2023/02/14 03:58:27;;;;;;;;;;;;;;;2.78;80.90;102842.88;103936;1302;77217;-78
2023/02/14 04:01:17;;;;;;;;;;;;;;;2.82;80.86;102846.50;104275;1297;67199;-78
2023/02/14 04:04:04;;;;;;;;;;;;;;;2.87;80.97;102844.02;104197;1296;73272;-79
2023/02/14 04:06:51;;;;;;;;;;;;;;;2.92;80.97;102841.73;104222;1302;61183;-79
2023/02/14 04:09:37;;;;;;;;;;;;;;;2.96;80.99;102833.95;104369;1296;61629;-79
2023/02/14 04:12:23;;;;;;;;;;;;;;;3.00;80.96;102831.73;104258;1302;75100;-78
2023/02/14 04:15:10;;;;;;;;;;;;;;;3.04;80.99;102836.19;104716;1292;67173;-78
2023/02/14 04:21:02;;;;;;;;;;;;;;;3.10;80.99;102838.23;105409;1289;61707;-81
2023/02/14 04:23:48;;;;;;;;;;;;;;;3.13;80.99;102838.32;105237;1289;60052;-81
2023/02/14 04:26:34;;;;;;;;;;;;;;;3.16;80.99;102837.27;105252;1289;75725;-81
2023/02/14 04:29:20;;;;;;;;;;;;;;;3.17;80.98;102833.91;105344;1289;68551;-81
2023/02/14 04:32:07;;;;;;;;;;;;;;;3.19;81.02;102842.23;105295;1291;72206;-82
2023/02/14 04:34:53;;;;;;;;;;;;;;;3.22;81.00;102843.06;105181;1290;61137;-81
2023/02/14 04:37:39;;;;;;;;;;;;;;;3.24;80.97;102840.41;105439;1289;59096;-81
2023/02/14 04:40:25;;;;;;;;;;;;;;;3.27;81.05;102840.05;105321;1293;73344;-81
2023/02/14 04:43:12;;;;;;;;;;;;;;;3.29;80.97;102845.79;105282;1290;67648;-81
2023/02/14 04:45:58;;;;;;;;;;;;;;;3.29;81.00;102849.20;105440;1290;71143;-82
2023/02/14 04:48:44;;;;;;;;;;;;;;;3.29;80.99;102846.15;105384;1291;60668;-81
2023/02/14 04:51:30;;;;;;;;;;;;;;;3.29;80.94;102838.65;105438;1290;59620;-81
2023/02/14 04:54:16;;;;;;;;;;;;;;;3.31;80.96;102842.15;105250;1290;74066;-81
2023/02/14 04:57:02;;;;;;;;;;;;;;;3.34;81.03;102843.29;105260;1290;70095;-77
2023/02/14 04:59:49;;;;;;;;;;;;;;;3.36;81.08;102840.48;104849;1289;72374;-78
2023/02/14 05:02:35;;;;;;;;;;;;;;;3.39;81.10;102842.86;104982;1290;61751;-78
2023/02/14 05:05:22;;;;;;;;;;;;;;;3.41;81.03;102844.66;105058;1290;62936;-78
2023/02/14 05:08:08;;;;;;;;;;;;;;;3.42;80.99;102841.98;104869;1289;74114;-78
2023/02/14 05:10:54;;;;;;;;;;;;;;;3.42;81.02;102843.34;105075;1290;67302;-78
2023/02/14 05:13:40;;;;;;;;;;;;;;;3.44;81.09;102843.65;104910;1289;71110;-78
2023/02/14 05:16:26;;;;;;;;;;;;;;;3.45;81.05;102846.73;104887;1289;59663;-78
2023/02/14 05:19:12;;;;;;;;;;;;;;;3.44;81.03;102845.16;104997;1290;59822;-78
2023/02/14 05:21:58;;;;;;;;;;;;;;;3.45;81.10;102841.27;105028;1293;74438;-78
2023/02/14 05:24:45;;;;;;;;;;;;;;;3.46;81.12;102834.34;104986;1290;67243;-79
2023/02/14 05:27:31;;;;;;;;;;;;;;;3.47;81.07;102841.38;104902;1289;73991;-81
2023/02/14 05:30:21;;;;;;;;;;;;;;;3.48;81.13;102846.02;104790;1289;61171;-81
2023/02/14 05:33:07;;;;;;;;;;;;;;;3.47;81.08;102847.54;104878;1289;61018;-81
2023/02/14 05:35:53;;;;;;;;;;;;;;;3.48;81.08;102844.81;104858;1289;73385;-80
2023/02/14 05:38:39;;;;;;;;;;;;;;;3.47;81.16;102844.11;104956;1290;67255;-80
2023/02/14 05:41:25;;;;;;;;;;;;;;;3.47;81.09;102846.67;105001;1290;72315;-81
2023/02/14 05:44:12;;;;;;;;;;;;;;;3.46;81.02;102848.00;105246;1291;60024;-82
2023/02/14 05:46:58;;;;;;;;;;;;;;;3.44;81.01;102849.40;105210;1289;59698;-82
2023/02/14 05:49:44;;;;;;;;;;;;;;;3.41;81.05;102851.66;105349;1290;74538;-82
2023/02/14 05:52:30;;;;;;;;;;;;;;;3.40;81.05;102852.98;105272;1288;70440;-82
2023/02/14 05:55:16;;;;;;;;;;;;;;;3.40;81.07;102850.23;105276;1288;71101;-82
2023/02/14 05:58:02;;;;;;;;;;;;;;;3.39;81.01;102851.20;104630;1289;60053;-82
2023/02/14 06:00:48;;;;;;;;;;;;;;;3.35;80.98;102857.17;104433;1290;61697;-82
2023/02/14 06:03:35;;;;;;;;;;;;;;;3.30;80.97;102862.73;104701;1290;74446;-82
2023/02/14 06:06:21;;;;;;;;;;;;;;;3.26;81.07;102863.38;105284;1289;66429;-82
2023/02/14 06:09:07;;;;;;;;;;;;;;;3.27;81.12;102865.48;105184;1288;72167;-82
2023/02/14 06:11:53;;;;;;;;;;;;;;;3.29;81.17;102873.89;105378;1291;59611;-82
2023/02/14 06:14:41;;;;;;;;;;;;;;;3.30;81.16;102873.79;105413;1290;61066;-82
2023/02/14 06:17:27;;;;;;;;;;;;;;;3.33;81.12;102875.48;105365;1289;74935;-81
2023/02/14 06:20:13;;;;;;;;;;;;;;;3.35;81.15;102879.48;104985;1293;69187;-81
2023/02/14 06:23:00;;;;;;;;;;;;;;;3.37;81.13;102877.55;104861;1290;72030;-81
2023/02/14 06:25:46;;;;;;;;;;;;;;;3.39;81.13;102875.94;104938;1291;61369;-81
2023/02/14 06:28:32;;;;;;;;;;;;;;;3.39;81.17;102881.73;104982;1293;61121;-81
2023/02/14 06:31:18;;;;;;;;;;;;;;;3.39;81.12;102885.16;105005;1290;74549;-80
2023/02/14 06:34:05;;;;;;;;;;;;;;;3.39;81.14;102886.48;104843;1293;68972;-80
2023/02/14 06:36:51;;;;;;;;;;;;;;;3.40;81.13;102886.54;104840;1289;72737;-80
2023/02/14 06:39:37;;;;;;;;;;;;;;;3.39;81.14;102887.37;105322;1289;59696;-80
2023/02/14 06:42:24;;;;;;;;;;;;;;;3.36;81.07;102888.91;105120;1292;205224;-81
2023/02/14 06:45:10;;;;;;;;;;;;;;;3.37;81.18;102889.65;105290;1293;73364;-81
2023/02/14 06:47:56;;;;;;;;;;;;;;;3.39;81.20;102886.84;105411;1290;68894;-81
2023/02/14 06:50:42;;;;;;;;;;;;;;;3.42;81.21;102888.02;105521;1288;72532;-81
2023/02/14 06:53:28;;;;;;;;;;;;;;;3.44;81.21;102888.48;105402;1290;61067;-80
2023/02/14 06:56:14;;;;;;;;;;;;;;;3.46;81.22;102892.83;105322;1288;59299;-80
2023/02/14 06:59:00;;;;;;;;;;;;;;;3.46;81.19;102900.98;105385;1289;76072;-79
2023/02/14 07:01:46;;;;;;;;;;;;;;;3.48;81.29;102901.11;105465;1290;67400;-81
2023/02/14 07:04:32;;;;;;;;;;;;;;;3.52;81.26;102899.42;105190;1292;70950;-80
2023/02/14 07:07:19;;;;;;;;;;;;;;;3.54;81.31;102904.67;105427;1293;60067;-80
2023/02/14 07:10:05;;;;;;;;;;;;;;;3.58;81.36;102909.63;105394;1289;59362;-80
2023/02/14 07:12:52;;;;;;;;;;;;;;;3.63;81.39;102903.02;104987;1289;76026;-81
2023/02/14 07:15:38;;;;;;;;;;;;;;;3.69;81.38;102900.91;105033;1289;68667;-80
2023/02/14 07:18:24;;;;;;;;;;;;;;;3.75;81.44;102904.98;104919;1293;73155;-80
2023/02/14 07:21:10;;;;;;;;;;;;;;;3.82;81.50;102908.90;105050;1290;61194;-80
2023/02/14 07:23:57;;;;;;;;;;;;;;;3.88;81.54;102914.33;105030;1289;59690;-80
2023/02/14 07:26:43;;;;;;;;;;;;;;;3.94;81.52;102916.34;104929;1289;73277;-80
2023/02/14 07:29:29;;;;;;;;;;;;;;;4.00;81.56;102915.73;104842;1291;73408;-80
2023/02/14 07:32:15;;;;;;;;;;;;;;;4.07;81.61;102916.73;104990;1290;75082;-80
2023/02/14 07:35:01;;;;;;;;;;;;;;;4.14;81.63;102923.93;104865;1291;61201;-80
2023/02/14 07:37:48;;;;;;;;;;;;;;;4.20;81.63;102923.50;104955;1289;61100;-80
2023/02/14 07:40:34;;;;;;;;;;;;;;;4.26;81.60;102918.69;105108;1287;73693;-80
2023/02/14 07:43:20;;;;;;;;;;;;;;;4.34;81.61;102920.73;105171;1289;67207;-80
2023/02/14 07:46:07;;;;;;;;;;;;;;;4.41;81.56;102925.83;105023;1288;73051;-80
2023/02/14 07:48:53;;;;;;;;;;;;;;;4.47;81.63;102928.16;104922;1288;61283;-80
2023/02/14 07:51:39;;;;;;;;;;;;;;;4.53;81.63;102931.19;105118;1287;61146;-80
2023/02/14 07:54:25;;;;;;;;;;;;;;;4.60;81.58;102929.30;105039;1288;76138;-80
2023/02/14 07:57:11;;;;;;;;;;;;;;;4.68;81.59;102923.48;105166;1288;68103;-80
2023/02/14 07:59:58;;;;;;;;;;;;;;;4.76;81.59;102927.90;105017;1288;76525;-80
2023/02/14 08:02:44;;;;;;;;;;;;;;;4.83;81.57;102931.50;105063;1290;61311;-81
2023/02/14 08:05:30;;;;;;;;;;;;;;;4.91;81.56;102932.52;105050;1290;60110;-80
2023/02/14 08:08:16;;;;;;;;;;;;;;;4.98;81.53;102930.46;104989;1288;75103;-80
2023/02/14 08:11:02;;;;;;;;;;;;;;;5.05;81.51;102932.13;105039;1288;68829;-80
2023/02/14 08:13:48;;;;;;;;;;;;;;;5.10;81.46;102933.91;105008;1288;72523;-78
2023/02/14 08:16:34;;;;;;;;;;;;;;;5.16;81.40;102934.83;105036;1288;61066;-78
2023/02/14 08:19:21;;;;;;;;;;;;;;;5.23;81.46;102928.77;105183;1292;61068;-78
2023/02/14 08:22:07;;;;;;;;;;;;;;;5.30;81.44;102933.89;105002;1293;76025;-78
2023/02/14 08:24:53;;;;;;;;;;;;;;;5.41;81.47;102935.19;105124;1288;68598;-78
2023/02/14 08:27:39;;;;;;;;;;;;;;;5.49;81.37;102929.39;105015;1293;72477;-78
2023/02/14 08:30:26;;;;;;;;;;;;;;;5.58;81.38;102928.23;105059;1288;60776;-78
2023/02/14 08:33:12;;;;;;;;;;;;;;;5.69;81.41;102930.20;105142;1288;59001;-78
2023/02/14 08:35:58;;;;;;;;;;;;;;;5.78;81.40;102931.08;105266;1287;74908;-78
2023/02/14 08:38:46;;;;;;;;;;;;;;;5.86;81.38;102935.36;104946;1293;67186;-78
2023/02/14 08:41:32;;;;;;;;;;;;;;;5.93;81.35;102941.14;105065;1287;71020;-78
2023/02/14 08:44:19;;;;;;;;;;;;;;;5.97;81.36;102946.61;105136;1288;61218;-79
2023/02/14 08:47:05;;;;;;;;;;;;;;;6.03;81.37;102940.52;104983;1288;62352;-78
2023/02/14 08:49:52;;;;;;;;;;;;;;;6.09;81.27;102936.96;105006;1289;73342;-79
2023/02/14 08:52:39;;;;;;;;;;;;;;;6.14;81.24;102940.76;105178;1287;67120;-79
2023/02/14 08:55:25;;;;;;;;;;;;;;;6.17;81.21;102948.08;105028;1288;71534;-79
2023/02/14 08:58:12;;;;;;;;;;;;;;;6.21;81.17;102945.84;105065;1288;61126;-79
2023/02/14 09:00:58;;;;;;;;;;;;;;;6.25;81.13;102945.15;104968;1293;61639;-79
2023/02/14 09:03:45;;;;;;;;;;;;;;;6.30;81.12;102947.40;105088;1288;73290;-79
2023/02/14 09:06:32;;;;;;;;;;;;;;;6.35;81.13;102950.83;105099;1287;69057;-79
2023/02/14 09:09:18;;;;;;;;;;;;;;;6.40;81.22;102947.77;105150;1288;71885;-79
2023/02/14 09:12:06;;;;;;;;;;;;;;;6.48;81.10;102944.45;105052;1289;60918;-80
2023/02/14 09:14:52;;;;;;;;;;;;;;;6.53;81.03;102951.89;105216;1288;60654;-80
2023/02/14 09:17:38;;;;;;;;;;;;;;;6.58;80.95;102947.59;105096;1287;75002;-80
2023/02/14 09:20:24;;;;;;;;;;;;;;;6.67;81.04;102944.68;105098;1288;68293;-80
2023/02/14 09:23:11;;;;;;;;;;;;;;;6.74;80.95;102953.35;105232;1288;74052;-79
2023/02/14 09:26:01;;;;;;;;;;;;;;;6.82;81.00;102956.70;105067;1290;61138;-79
2023/02/14 09:28:47;;;;;;;;;;;;;;;6.90;81.01;102948.42;104970;1288;61805;-79
2023/02/14 09:31:33;;;;;;;;;;;;;;;6.99;81.04;102950.46;105066;1288;73326;-79
2023/02/14 09:34:20;;;;;;;;;;;;;;;7.07;80.92;102948.89;105106;1288;67318;-79
2023/02/14 09:40:15;;;;;;;;;;;;;;;7.14;80.79;102949.48;105189;1288;60791;-80
2023/02/14 09:43:08;;;;;;;;;;;;;;;7.10;80.54;102948.47;105031;1288;61131;-80
2023/02/14 09:45:57;;;;;;;;;;;;;;;7.06;80.71;102951.90;105010;1288;74444;-79
2023/02/14 09:48:45;;;;;;;;;;;;;;;7.09;80.72;102951.54;105124;1292;69273;-79
2023/02/14 09:51:31;;;;;;;;;;;;;;;7.16;80.73;102948.86;104950;1288;71342;-79
2023/02/14 09:54:21;;;;;;;;;;;;;;;7.12;80.21;102948.37;105118;1287;61303;-79
2023/02/14 09:57:18;;;;;;;;;;;;;;;7.06;80.41;102952.27;106144;1289;59672;-81
2023/02/14 10:00:18;;;;;;;;;;;;;;;7.04;80.56;102951.16;105336;1288;73388;-79
2023/02/14 10:03:29;;;;;;;;;;;;;;;7.00;80.65;102953.77;104947;1288;70040;-79
2023/02/14 10:06:35;;;;;;;;;;;;;;;7.00;80.60;102946.39;105026;1288;71829;-79
2023/02/14 10:09:30;;;;;;;;;;;;;;;7.00;80.56;102947.93;104457;1297;61398;-79
2023/02/14 10:12:25;;;;;;;;;;;;;;;7.06;80.61;102945.23;104484;1295;64329;-79
2023/02/14 10:15:16;;;;;;;;;;;;;;;7.15;80.61;102937.50;104359;1296;74799;-79
2023/02/14 10:18:16;;;;;;;;;;;;;;;7.23;80.68;102934.17;104455;1296;68580;-79
2023/02/14 10:21:06;;;;;;;;;;;;;;;7.31;80.56;102928.27;104503;1295;71569;-79
2023/02/14 10:23:59;;;;;;;;;;;;;;;7.39;80.46;102928.86;104405;1296;61380;-79
2023/02/14 10:26:47;;;;;;;;;;;;;;;7.46;80.34;102926.02;104369;1297;61215;-79
2023/02/14 10:29:33;;;;;;;;;;;;;;;7.41;80.12;102919.66;104506;1296;73290;-79
2023/02/14 10:32:27;;;;;;;;;;;;;;;7.24;80.15;102918.94;104442;1299;71534;-79
2023/02/14 10:35:30;;;;;;;;;;;;;;;7.22;80.22;102921.98;105580;1297;72337;-79
2023/02/14 10:38:34;;;;;;;;;;;;;;;7.20;80.23;102911.79;105502;1296;59531;-79
2023/02/14 10:41:23;;;;;;;;;;;;;;;7.28;80.35;102915.80;105534;1297;59853;-79
2023/02/14 10:44:18;;;;;;;;;;;;;;;7.36;80.34;102911.27;105257;1296;73409;-78
2023/02/14 10:47:13;;;;;;;;;;;;;;;7.43;80.24;102911.69;104897;1293;67304;-78
2023/02/14 10:50:29;;;;;;;;;;;;;;;7.50;80.20;102910.90;105063;1288;72564;-78
2023/02/14 10:53:23;;;;;;;;;;;;;;;7.57;80.10;102911.13;104429;1297;61640;-78
2023/02/14 10:56:18;;;;;;;;;;;;;;;7.62;80.04;102912.16;104427;1297;61183;-78
2023/02/14 10:59:21;;;;;;;;;;;;;;;7.60;79.99;102910.35;97025;1296;5003575;-78
2023/02/14 11:02:12;;;;;;;;;;;;;;;7.59;79.86;102920.10;104381;1297;67214;-78
2023/02/14 11:04:59;;;;;;;;;;;;;;;7.51;79.94;102914.70;104471;1294;72641;-78
2023/02/14 11:07:45;;;;;;;;;;;;;;;7.44;79.87;102909.32;104314;1296;60226;-78
2023/02/14 11:10:33;;;;;;;;;;;;;;;7.37;79.85;102909.59;104507;1299;61291;-78
2023/02/14 11:13:29;;;;;;;;;;;;;;;7.33;79.85;102904.65;104490;1295;73319;-78
2023/02/14 11:16:27;;;;;;;;;;;;;;;7.38;79.97;102907.03;104505;1297;69400;-79
2023/02/14 11:19:13;;;;;;;;;;;;;;;7.41;79.82;102910.07;104372;1294;71316;-79
2023/02/14 11:22:01;;;;;;;;;;;;;;;7.47;80.01;102901.70;104437;1296;61205;-79
2023/02/14 11:24:47;;;;;;;;;;;;;;;7.57;80.05;102901.86;104501;1296;61447;-79
2023/02/14 11:27:34;;;;;;;;;;;;;;;7.66;79.85;102908.67;104462;1297;74400;-79
2023/02/14 11:30:44;;;;;;;;;;;;;;;7.74;79.76;102904.81;104779;1291;68155;-79
2023/02/14 11:33:33;;;;;;;;;;;;;;;7.80;79.55;102898.82;104360;1302;73987;-79
2023/02/14 11:36:20;;;;;;;;;;;;;;;7.75;79.44;102902.59;104336;1297;61150;-79
2023/02/14 11:39:21;;;;;;;;;;;;;;;7.65;79.37;102902.61;104408;1296;61909;-79
2023/02/14 11:42:10;;;;;;;;;;;;;;;7.59;79.42;102897.80;104353;1297;75742;-79
2023/02/14 11:44:58;;;;;;;;;;;;;;;7.55;79.49;102897.52;104346;1297;67334;-79
2023/02/14 11:47:44;;;;;;;;;;;;;;;7.55;79.53;102890.98;104206;1296;71392;-79
2023/02/14 11:50:31;;;;;;;;;;;;;;;7.57;79.50;102881.60;104406;1297;61338;-79
2023/02/14 11:53:20;;;;;;;;;;;;;;;7.59;79.33;102882.52;104272;1297;61240;-79
2023/02/14 11:56:07;;;;;;;;;;;;;;;7.61;79.31;102886.88;104360;1296;73268;-79
2023/02/14 11:58:55;;;;;;;;;;;;;;;7.65;79.22;102879.30;104336;1299;67201;-79
2023/02/14 12:01:44;;;;;;;;;;;;;;;7.72;79.36;102867.84;104393;1296;73260;-78
2023/02/14 12:04:34;;;;;;;;;;;;;;;7.78;79.16;102864.10;104366;1296;61198;-78
2023/02/14 12:07:22;;;;;;;;;;;;;;;7.82;79.24;102862.27;104469;1295;61374;-78
2023/02/14 12:10:14;;;;;;;;;;;;;;;7.85;79.18;102864.63;104477;1288;73270;-79
2023/02/14 12:13:07;;;;;;;;;;;;;;;7.87;79.11;102864.02;105121;1288;68219;-79
2023/02/14 12:15:55;;;;;;;;;;;;;;;7.89;79.03;102868.88;105173;1288;72322;-79
2023/02/14 12:18:44;;;;;;;;;;;;;;;7.86;78.86;102867.23;105124;1290;61392;-79
2023/02/14 12:21:37;;;;;;;;;;;;;;;7.79;78.97;102863.60;104796;1288;61114;-79
2023/02/14 12:24:39;;;;;;;;;;;;;;;7.77;78.85;102863.02;105120;1288;76001;-79
2023/02/14 12:27:39;;;;;;;;;;;;;;;7.74;78.89;102865.33;105004;1286;68391;-79
2023/02/14 12:30:27;;;;;;;;;;;;;;;7.73;78.90;102853.10;105107;1288;72373;-79
2023/02/14 12:33:18;;;;;;;;;;;;;;;7.72;78.92;102846.39;105041;1288;61721;-79
2023/02/14 12:36:13;;;;;;;;;;;;;;;7.75;78.96;102849.73;105106;1288;61276;-79
2023/02/14 12:39:14;;;;;;;;;;;;;;;7.80;78.87;102850.73;105132;1287;72469;-79
2023/02/14 12:42:03;;;;;;;;;;;;;;;7.85;78.83;102839.20;105142;1287;66258;-79
2023/02/14 12:45:09;;;;;;;;;;;;;;;7.88;79.01;102838.09;105068;1288;71137;-79
2023/02/14 12:47:55;;;;;;;;;;;;;;;7.89;78.97;102841.73;105129;1288;60163;-79
2023/02/14 12:50:41;;;;;;;;;;;;;;;7.85;78.79;102842.29;105145;1290;60088;-79
2023/02/14 12:53:30;;;;;;;;;;;;;;;7.81;78.65;102840.98;105114;1292;74296;-79
2023/02/14 12:56:25;;;;;;;;;;;;;;;7.80;78.62;102839.05;105160;1288;68148;-79
2023/02/14 12:59:37;;;;;;;;;;;;;;;7.79;78.67;102845.77;104999;1292;71208;-79
2023/02/14 13:02:46;;;;;;;;;;;;;;;7.80;78.67;102845.92;104483;1296;61720;-79
2023/02/14 13:05:44;;;;;;;;;;;;;;;7.84;78.53;102842.61;103921;1302;59841;-77
2023/02/14 13:08:49;;;;;;;;;;;;;;;7.85;78.56;102845.73;104016;1302;72952;-77
2023/02/14 13:11:42;;;;;;;;;;;;;;;7.79;78.48;102843.66;104025;1303;67648;-77
2023/02/14 13:14:49;;;;;;;;;;;;;;;7.74;78.47;102839.20;104030;1301;73038;-76
2023/02/14 13:17:48;;;;;;;;;;;;;;;7.68;78.32;102837.15;103644;1310;61189;-76
2023/02/14 13:21:00;;;;;;;;;;;;;;;7.64;78.45;102832.04;103682;1306;61256;-76
2023/02/14 13:23:47;;;;;;;;;;;;;;;7.60;78.27;102831.73;103703;1305;74394;-76
2023/02/14 13:26:37;;;;;;;;;;;;;;;7.56;78.30;102836.27;103722;1305;68684;-76
2023/02/14 13:29:25;;;;;;;;;;;;;;;7.51;78.43;102828.89;103644;1305;71503;-79
2023/02/14 13:32:15;;;;;;;;;;;;;;;7.47;78.10;102825.84;103510;1305;61755;-79
2023/02/14 13:35:02;;;;;;;;;;;;;;;7.44;78.21;102824.52;103639;1306;61727;-80
2023/02/14 13:37:53;;;;;;;;;;;;;;;7.40;78.30;102824.05;103610;1308;74506;-79
2023/02/14 13:40:40;;;;;;;;;;;;;;;7.39;78.24;102820.06;103866;1302;67229;-79
2023/02/14 13:44:00;;;;;;;;;;;;;;;7.39;78.15;102816.81;104252;1297;72573;-79
2023/02/14 13:46:48;;;;;;;;;;;;;;;7.37;78.13;102818.63;103971;1302;61262;-79
2023/02/14 13:49:37;;;;;;;;;;;;;;;7.36;78.07;102816.73;103796;1305;61591;-79
2023/02/14 13:52:42;;;;;;;;;;;;;;;7.36;78.01;102817.92;103799;1303;74612;-79
2023/02/14 13:55:33;;;;;;;;;;;;;;;7.34;77.95;102815.79;104168;1296;67298;-79
2023/02/14 13:58:23;;;;;;;;;;;;;;;7.31;77.96;102813.31;104243;1296;72158;-79
2023/02/14 14:01:49;;;;;;;;;;;;;;;7.28;77.84;102816.48;104295;1297;62059;-79
2023/02/14 14:04:36;;;;;;;;;;;;;;;7.27;77.88;102813.71;103960;1302;62854;-79
2023/02/14 14:07:25;;;;;;;;;;;;;;;7.25;77.86;102811.27;103917;1302;74051;-80
2023/02/14 14:10:12;;;;;;;;;;;;;;;7.23;77.76;102810.67;103902;1302;67335;-79
2023/02/14 14:12:58;;;;;;;;;;;;;;;7.22;77.77;102812.17;103899;1302;72395;-79
2023/02/14 14:16:03;;;;;;;;;;;;;;;7.20;77.79;102808.52;103884;1303;61268;-79
2023/02/14 14:18:51;;;;;;;;;;;;;;;7.17;77.70;102811.50;103951;1302;61242;-79
2023/02/14 14:21:42;;;;;;;;;;;;;;;7.13;77.62;102811.88;103949;1296;73955;-79
2023/02/14 14:24:33;;;;;;;;;;;;;;;7.09;77.67;102815.16;104315;1299;71420;-79
2023/02/14 14:27:34;;;;;;;;;;;;;;;7.05;77.59;102815.53;104235;1299;73069;-79
2023/02/14 14:30:22;;;;;;;;;;;;;;;7.01;77.65;102817.45;104263;1301;63051;-79
2023/02/14 14:33:22;;;;;;;;;;;;;;;6.95;77.50;102809.55;104167;1299;64195;-79
2023/02/14 14:36:10;;;;;;;;;;;;;;;6.91;77.53;102805.48;104294;1298;73456;-79
2023/02/14 14:38:56;;;;;;;;;;;;;;;6.88;77.46;102809.48;104662;1291;67738;-79
2023/02/14 14:41:42;;;;;;;;;;;;;;;6.85;77.51;102806.27;105019;1288;71174;-79
2023/02/14 14:44:29;;;;;;;;;;;;;;;6.82;77.42;102804.98;104918;1288;60413;-79